Hamoir, Belgium
Current Conditions -  °F | °C
As of 10:50 AM on Saturday 25 Oct 2014 (Local Time) from EBLG Reporting Station
Haze Haze  
Wind Chill: 11°   Ceiling: 400
Heat Index: 11°   Visibility: 3mi
Dew Point: 10°   Wind: 7mph
Humidity: 94%   Direction: 200°SSW
Pressure: 30.09"   Gusts: NA
Location:  50.43°N, 5.53°E
Report Text: EBLG 250850Z 20006KT 5000 BR SCT003 BKN004 11/10 Q1019 TEMPO 3000 BR BKN003
Loading
Personal Weather Stations






























Interactive Weather Map
Tropical Storm Tracking
New forecast layout! Learn more

10-Day Weather Forecast

Advertisements
Track Severe Weather on mobile